sensor_id;sensor_type;location;lat;lon;timestamp;temperature;humidity
7143;DHT22;3613;48.902;9.204;2022-07-23T00:01:48;25.00;99.90
7143;DHT22;3613;48.902;9.204;2022-07-23T00:04:14;25.00;99.90
7143;DHT22;3613;48.902;9.204;2022-07-23T00:06:39;24.90;99.90
7143;DHT22;3613;48.902;9.204;2022-07-23T00:09:05;24.90;99.90
7143;DHT22;3613;48.902;9.204;2022-07-23T00:11:31;24.80;99.90
7143;DHT22;3613;48.902;9.204;2022-07-23T00:13:56;24.80;99.90
7143;DHT22;3613;48.902;9.204;2022-07-23T00:16:23;24.80;99.90
7143;DHT22;3613;48.902;9.204;2022-07-23T00:18:51;24.80;99.90
7143;DHT22;3613;48.902;9.204;2022-07-23T00:21:16;24.80;99.90
7143;DHT22;3613;48.902;9.204;2022-07-23T00:23:42;24.80;99.90
7143;DHT22;3613;48.902;9.204;2022-07-23T00:26:08;24.80;99.90
7143;DHT22;3613;48.902;9.204;2022-07-23T00:28:34;24.80;99.90
7143;DHT22;3613;48.902;9.204;2022-07-23T00:31:00;24.80;99.90
7143;DHT22;3613;48.902;9.204;2022-07-23T00:33:25;24.70;99.90
7143;DHT22;3613;48.902;9.204;2022-07-23T00:35:51;24.70;99.90
7143;DHT22;3613;48.902;9.204;2022-07-23T00:38:19;24.60;99.90
7143;DHT22;3613;48.902;9.204;2022-07-23T00:40:44;24.70;99.90
7143;DHT22;3613;48.902;9.204;2022-07-23T00:43:10;24.70;99.90
7143;DHT22;3613;48.902;9.204;2022-07-23T00:45:36;24.70;99.90
7143;DHT22;3613;48.902;9.204;2022-07-23T00:48:04;24.70;99.90
7143;DHT22;3613;48.902;9.204;2022-07-23T00:50:29;24.70;99.90
7143;DHT22;3613;48.902;9.204;2022-07-23T00:52:57;24.70;99.90
7143;DHT22;3613;48.902;9.204;2022-07-23T00:55:23;24.60;99.90
7143;DHT22;3613;48.902;9.204;2022-07-23T00:57:53;24.60;99.90
7143;DHT22;3613;48.902;9.204;2022-07-23T01:00:19;24.50;99.90
7143;DHT22;3613;48.902;9.204;2022-07-23T01:02:47;24.40;99.90
7143;DHT22;3613;48.902;9.204;2022-07-23T01:05:13;24.30;99.90
7143;DHT22;3613;48.902;9.204;2022-07-23T01:07:39;24.30;99.90
7143;DHT22;3613;48.902;9.204;2022-07-23T01:10:08;24.20;99.90
7143;DHT22;3613;48.902;9.204;2022-07-23T01:12:56;24.20;99.90
7143;DHT22;3613;48.902;9.204;2022-07-23T01:15:22;24.20;99.90
7143;DHT22;3613;48.902;9.204;2022-07-23T01:17:48;24.10;99.90
7143;DHT22;3613;48.902;9.204;2022-07-23T01:20:14;24.00;99.90
7143;DHT22;3613;48.902;9.204;2022-07-23T01:22:42;24.00;99.90
7143;DHT22;3613;48.902;9.204;2022-07-23T01:25:13;24.00;99.90
7143;DHT22;3613;48.902;9.204;2022-07-23T01:27:38;23.90;99.90
7143;DHT22;3613;48.902;9.204;2022-07-23T01:30:07;23.90;99.90
7143;DHT22;3613;48.902;9.204;2022-07-23T01:32:33;23.80;99.90
7143;DHT22;3613;48.902;9.204;2022-07-23T01:34:59;23.70;99.90
7143;DHT22;3613;48.902;9.204;2022-07-23T01:37:29;23.60;99.90
7143;DHT22;3613;48.902;9.204;2022-07-23T01:39:55;23.50;99.90
7143;DHT22;3613;48.902;9.204;2022-07-23T01:42:20;23.40;99.90
7143;DHT22;3613;48.902;9.204;2022-07-23T01:44:48;23.40;99.90
7143;DHT22;3613;48.902;9.204;2022-07-23T01:47:14;23.40;99.90
7143;DHT22;3613;48.902;9.204;2022-07-23T01:49:40;23.30;99.90
7143;DHT22;3613;48.902;9.204;2022-07-23T01:52:05;23.40;99.90
7143;DHT22;3613;48.902;9.204;2022-07-23T01:54:34;23.30;99.90
7143;DHT22;3613;48.902;9.204;2022-07-23T01:57:03;23.30;99.90
7143;DHT22;3613;48.902;9.204;2022-07-23T01:59:29;23.30;99.90
7143;DHT22;3613;48.902;9.204;2022-07-23T02:01:55;23.30;99.90
7143;DHT22;3613;48.902;9.204;2022-07-23T02:04:24;23.20;99.90
7143;DHT22;3613;48.902;9.204;2022-07-23T02:06:52;23.10;99.90
7143;DHT22;3613;48.902;9.204;2022-07-23T02:09:17;23.00;99.90
7143;DHT22;3613;48.902;9.204;2022-07-23T02:11:46;23.00;99.90
7143;DHT22;3613;48.902;9.204;2022-07-23T02:14:11;22.90;99.90
7143;DHT22;3613;48.902;9.204;2022-07-23T02:16:37;22.90;99.90
7143;DHT22;3613;48.902;9.204;2022-07-23T02:19:03;22.80;99.90
7143;DHT22;3613;48.902;9.204;2022-07-23T02:21:29;22.80;99.90
7143;DHT22;3613;48.902;9.204;2022-07-23T02:23:55;22.70;99.90
7143;DHT22;3613;48.902;9.204;2022-07-23T02:26:20;22.80;99.90
7143;DHT22;3613;48.902;9.204;2022-07-23T02:28:50;22.70;99.90
7143;DHT22;3613;48.902;9.204;2022-07-23T02:31:18;22.80;99.90
7143;DHT22;3613;48.902;9.204;2022-07-23T02:33:43;22.80;99.90
7143;DHT22;3613;48.902;9.204;2022-07-23T02:36:09;22.80;99.90
7143;DHT22;3613;48.902;9.204;2022-07-23T02:38:35;22.70;99.90
7143;DHT22;3613;48.902;9.204;2022-07-23T02:41:02;22.60;99.90
7143;DHT22;3613;48.902;9.204;2022-07-23T02:43:28;22.50;99.90
7143;DHT22;3613;48.902;9.204;2022-07-23T02:45:56;22.40;99.90
7143;DHT22;3613;48.902;9.204;2022-07-23T02:48:22;22.20;99.90
7143;DHT22;3613;48.902;9.204;2022-07-23T02:50:49;22.10;99.90
7143;DHT22;3613;48.902;9.204;2022-07-23T02:53:17;22.00;99.90
7143;DHT22;3613;48.902;9.204;2022-07-23T02:55:42;21.90;99.90
7143;DHT22;3613;48.902;9.204;2022-07-23T02:58:10;21.80;99.90
7143;DHT22;3613;48.902;9.204;2022-07-23T03:00:38;21.70;99.90
7143;DHT22;3613;48.902;9.204;2022-07-23T03:03:04;21.70;99.90
7143;DHT22;3613;48.902;9.204;2022-07-23T03:05:29;21.70;99.90
7143;DHT22;3613;48.902;9.204;2022-07-23T03:07:55;21.70;99.90
7143;DHT22;3613;48.902;9.204;2022-07-23T03:10:23;21.80;99.90
7143;DHT22;3613;48.902;9.204;2022-07-23T03:12:51;21.90;99.90
7143;DHT22;3613;48.902;9.204;2022-07-23T03:15:17;21.90;99.90
7143;DHT22;3613;48.902;9.204;2022-07-23T03:17:42;22.00;99.90
7143;DHT22;3613;48.902;9.204;2022-07-23T03:20:09;21.90;99.90
7143;DHT22;3613;48.902;9.204;2022-07-23T03:22:35;21.90;99.90
7143;DHT22;3613;48.902;9.204;2022-07-23T03:25:01;22.00;99.90
7143;DHT22;3613;48.902;9.204;2022-07-23T03:27:29;22.00;99.90
7143;DHT22;3613;48.902;9.204;2022-07-23T03:29:57;22.10;99.90
7143;DHT22;3613;48.902;9.204;2022-07-23T03:32:26;22.10;99.90
7143;DHT22;3613;48.902;9.204;2022-07-23T03:34:52;22.10;99.90
7143;DHT22;3613;48.902;9.204;2022-07-23T03:37:18;22.10;99.90
7143;DHT22;3613;48.902;9.204;2022-07-23T03:39:44;22.10;99.90
7143;DHT22;3613;48.902;9.204;2022-07-23T03:42:17;22.10;99.90
7143;DHT22;3613;48.902;9.204;2022-07-23T03:44:45;22.10;99.90
7143;DHT22;3613;48.902;9.204;2022-07-23T03:47:13;22.00;99.90
7143;DHT22;3613;48.902;9.204;2022-07-23T03:49:38;22.00;99.90
7143;DHT22;3613;48.902;9.204;2022-07-23T03:52:04;21.90;99.90
7143;DHT22;3613;48.902;9.204;2022-07-23T03:54:30;21.80;99.90
7143;DHT22;3613;48.902;9.204;2022-07-23T03:56:55;21.70;99.90
7143;DHT22;3613;48.902;9.204;2022-07-23T03:59:21;21.60;99.90
7143;DHT22;3613;48.902;9.204;2022-07-23T04:01:49;21.60;99.90
7143;DHT22;3613;48.902;9.204;2022-07-23T04:04:15;21.60;99.90
7143;DHT22;3613;48.902;9.204;2022-07-23T04:06:40;21.60;99.90
7143;DHT22;3613;48.902;9.204;2022-07-23T04:09:06;21.60;99.90
7143;DHT22;3613;48.902;9.204;2022-07-23T04:11:34;21.60;99.90
7143;DHT22;3613;48.902;9.204;2022-07-23T04:14:00;21.70;99.90
7143;DHT22;3613;48.902;9.204;2022-07-23T04:16:28;21.70;99.90
7143;DHT22;3613;48.902;9.204;2022-07-23T04:18:54;21.80;99.90
7143;DHT22;3613;48.902;9.204;2022-07-23T04:21:19;22.00;99.90
7143;DHT22;3613;48.902;9.204;2022-07-23T04:23:45;22.10;99.90
7143;DHT22;3613;48.902;9.204;2022-07-23T04:26:11;22.20;99.90
7143;DHT22;3613;48.902;9.204;2022-07-23T04:28:41;22.50;99.90
7143;DHT22;3613;48.902;9.204;2022-07-23T04:31:12;22.70;99.90
7143;DHT22;3613;48.902;9.204;2022-07-23T04:33:37;22.70;99.90
7143;DHT22;3613;48.902;9.204;2022-07-23T04:36:03;22.90;99.90
7143;DHT22;3613;48.902;9.204;2022-07-23T04:38:29;23.00;99.90
7143;DHT22;3613;48.902;9.204;2022-07-23T04:40:55;23.00;99.90
7143;DHT22;3613;48.902;9.204;2022-07-23T04:43:20;23.20;99.90
7143;DHT22;3613;48.902;9.204;2022-07-23T04:45:46;23.30;99.90
7143;DHT22;3613;48.902;9.204;2022-07-23T04:48:11;23.40;99.90
7143;DHT22;3613;48.902;9.204;2022-07-23T04:50:37;23.50;99.90
7143;DHT22;3613;48.902;9.204;2022-07-23T04:53:03;23.60;99.90
7143;DHT22;3613;48.902;9.204;2022-07-23T04:55:31;23.90;99.90
7143;DHT22;3613;48.902;9.204;2022-07-23T04:57:56;24.20;99.90
7143;DHT22;3613;48.902;9.204;2022-07-23T05:00:22;24.60;99.90
7143;DHT22;3613;48.902;9.204;2022-07-23T05:02:50;25.20;99.90
7143;DHT22;3613;48.902;9.204;2022-07-23T05:05:15;25.80;99.90
7143;DHT22;3613;48.902;9.204;2022-07-23T05:07:43;26.10;99.90
7143;DHT22;3613;48.902;9.204;2022-07-23T05:10:09;26.40;99.90
7143;DHT22;3613;48.902;9.204;2022-07-23T05:12:34;26.40;99.90
7143;DHT22;3613;48.902;9.204;2022-07-23T05:15:00;26.10;99.90
7143;DHT22;3613;48.902;9.204;2022-07-23T05:17:26;25.70;99.90
7143;DHT22;3613;48.902;9.204;2022-07-23T05:19:51;25.50;99.90
7143;DHT22;3613;48.902;9.204;2022-07-23T05:22:17;25.40;99.90
7143;DHT22;3613;48.902;9.204;2022-07-23T05:24:42;25.50;99.90
7143;DHT22;3613;48.902;9.204;2022-07-23T05:27:08;26.40;99.90
7143;DHT22;3613;48.902;9.204;2022-07-23T05:29:36;27.70;99.90
7143;DHT22;3613;48.902;9.204;2022-07-23T05:32:04;28.80;99.90
7143;DHT22;3613;48.902;9.204;2022-07-23T05:34:30;28.80;99.90
7143;DHT22;3613;48.902;9.204;2022-07-23T05:36:56;28.40;99.90
7143;DHT22;3613;48.902;9.204;2022-07-23T05:39:22;27.60;99.90
7143;DHT22;3613;48.902;9.204;2022-07-23T05:41:49;27.10;99.90
7143;DHT22;3613;48.902;9.204;2022-07-23T05:44:15;26.30;99.90
7143;DHT22;3613;48.902;9.204;2022-07-23T05:46:41;25.80;99.90
7143;DHT22;3613;48.902;9.204;2022-07-23T05:49:08;25.60;99.90
7143;DHT22;3613;48.902;9.204;2022-07-23T05:51:34;25.20;99.90
7143;DHT22;3613;48.902;9.204;2022-07-23T05:54:00;25.10;99.90
7143;DHT22;3613;48.902;9.204;2022-07-23T05:56:25;25.00;99.90
7143;DHT22;3613;48.902;9.204;2022-07-23T05:58:51;24.80;99.90
7143;DHT22;3613;48.902;9.204;2022-07-23T06:01:16;24.30;99.90
7143;DHT22;3613;48.902;9.204;2022-07-23T06:03:45;23.90;99.90
7143;DHT22;3613;48.902;9.204;2022-07-23T06:06:10;23.70;99.90
7143;DHT22;3613;48.902;9.204;2022-07-23T06:08:38;23.50;99.90
7143;DHT22;3613;48.902;9.204;2022-07-23T06:11:04;23.30;99.90
7143;DHT22;3613;48.902;9.204;2022-07-23T06:13:29;23.30;99.90
7143;DHT22;3613;48.902;9.204;2022-07-23T06:15:55;23.20;99.90
7143;DHT22;3613;48.902;9.204;2022-07-23T06:18:21;23.20;99.90
7143;DHT22;3613;48.902;9.204;2022-07-23T06:20:46;23.10;99.90
7143;DHT22;3613;48.902;9.204;2022-07-23T06:23:12;23.10;99.90
7143;DHT22;3613;48.902;9.204;2022-07-23T06:25:40;23.10;99.90
7143;DHT22;3613;48.902;9.204;2022-07-23T06:28:05;23.00;99.90
7143;DHT22;3613;48.902;9.204;2022-07-23T06:30:31;23.00;99.90
7143;DHT22;3613;48.902;9.204;2022-07-23T06:32:59;23.20;99.90
7143;DHT22;3613;48.902;9.204;2022-07-23T06:35:24;23.60;99.90
7143;DHT22;3613;48.902;9.204;2022-07-23T06:37:50;24.30;99.90
7143;DHT22;3613;48.902;9.204;2022-07-23T06:40:16;24.70;99.90
7143;DHT22;3613;48.902;9.204;2022-07-23T06:42:41;24.80;99.90
7143;DHT22;3613;48.902;9.204;2022-07-23T06:45:07;25.00;99.90
7143;DHT22;3613;48.902;9.204;2022-07-23T06:47:35;25.20;99.90
7143;DHT22;3613;48.902;9.204;2022-07-23T06:50:03;25.30;99.90
7143;DHT22;3613;48.902;9.204;2022-07-23T06:52:29;25.10;99.90
7143;DHT22;3613;48.902;9.204;2022-07-23T06:54:55;24.70;99.90
7143;DHT22;3613;48.902;9.204;2022-07-23T06:57:20;24.50;99.90
7143;DHT22;3613;48.902;9.204;2022-07-23T06:59:49;24.10;99.90
7143;DHT22;3613;48.902;9.204;2022-07-23T07:02:14;23.80;99.90
7143;DHT22;3613;48.902;9.204;2022-07-23T07:04:42;23.60;99.90
7143;DHT22;3613;48.902;9.204;2022-07-23T07:07:08;23.30;99.90
7143;DHT22;3613;48.902;9.204;2022-07-23T07:09:35;23.00;99.90
7143;DHT22;3613;48.902;9.204;2022-07-23T07:12:01;22.80;99.90
7143;DHT22;3613;48.902;9.204;2022-07-23T07:14:27;22.50;99.90
7143;DHT22;3613;48.902;9.204;2022-07-23T07:16:52;21.90;99.90
7143;DHT22;3613;48.902;9.204;2022-07-23T07:19:18;21.30;99.90
7143;DHT22;3613;48.902;9.204;2022-07-23T07:21:44;20.90;99.90
7143;DHT22;3613;48.902;9.204;2022-07-23T07:24:11;20.60;99.90
7143;DHT22;3613;48.902;9.204;2022-07-23T07:26:39;20.20;99.90
7143;DHT22;3613;48.902;9.204;2022-07-23T07:29:05;20.10;99.90
7143;DHT22;3613;48.902;9.204;2022-07-23T07:31:33;20.00;99.90
7143;DHT22;3613;48.902;9.204;2022-07-23T07:33:59;19.80;99.90
7143;DHT22;3613;48.902;9.204;2022-07-23T07:36:27;19.70;99.90
7143;DHT22;3613;48.902;9.204;2022-07-23T07:38:53;19.70;99.90
7143;DHT22;3613;48.902;9.204;2022-07-23T07:41:18;19.90;99.90
7143;DHT22;3613;48.902;9.204;2022-07-23T07:43:48;20.40;99.90
7143;DHT22;3613;48.902;9.204;2022-07-23T07:46:13;21.50;99.90
7143;DHT22;3613;48.902;9.204;2022-07-23T07:48:39;23.40;99.90
7143;DHT22;3613;48.902;9.204;2022-07-23T07:51:05;24.40;99.90
7143;DHT22;3613;48.902;9.204;2022-07-23T07:53:31;24.60;99.90
7143;DHT22;3613;48.902;9.204;2022-07-23T07:55:56;25.60;99.90
7143;DHT22;3613;48.902;9.204;2022-07-23T07:58:24;25.70;99.90
7143;DHT22;3613;48.902;9.204;2022-07-23T08:00:52;25.50;99.90
7143;DHT22;3613;48.902;9.204;2022-07-23T08:03:22;25.00;99.90
7143;DHT22;3613;48.902;9.204;2022-07-23T08:05:48;24.40;99.90
7143;DHT22;3613;48.902;9.204;2022-07-23T08:08:14;24.00;99.90
7143;DHT22;3613;48.902;9.204;2022-07-23T08:10:40;23.60;99.90
7143;DHT22;3613;48.902;9.204;2022-07-23T08:13:12;23.20;99.90
7143;DHT22;3613;48.902;9.204;2022-07-23T08:15:39;22.80;99.90
7143;DHT22;3613;48.902;9.204;2022-07-23T08:18:04;22.60;99.90
7143;DHT22;3613;48.902;9.204;2022-07-23T08:20:30;22.50;99.90
7143;DHT22;3613;48.902;9.204;2022-07-23T08:22:59;22.50;99.90
7143;DHT22;3613;48.902;9.204;2022-07-23T08:25:37;22.70;99.90
7143;DHT22;3613;48.902;9.204;2022-07-23T08:28:06;22.70;99.90
7143;DHT22;3613;48.902;9.204;2022-07-23T08:30:32;22.90;99.90
7143;DHT22;3613;48.902;9.204;2022-07-23T08:35:34;23.30;99.90
7143;DHT22;3613;48.902;9.204;2022-07-23T08:38:05;24.90;99.90
7143;DHT22;3613;48.902;9.204;2022-07-23T08:40:33;26.70;99.90
7143;DHT22;3613;48.902;9.204;2022-07-23T08:43:02;26.40;99.90
7143;DHT22;3613;48.902;9.204;2022-07-23T08:45:29;26.10;99.90
7143;DHT22;3613;48.902;9.204;2022-07-23T08:47:58;25.50;99.90
7143;DHT22;3613;48.902;9.204;2022-07-23T08:50:25;25.70;99.90
7143;DHT22;3613;48.902;9.204;2022-07-23T08:52:51;26.10;99.90
7143;DHT22;3613;48.902;9.204;2022-07-23T08:55:22;26.60;99.90
7143;DHT22;3613;48.902;9.204;2022-07-23T08:57:52;27.30;99.90
7143;DHT22;3613;48.902;9.204;2022-07-23T09:00:19;28.30;99.90
7143;DHT22;3613;48.902;9.204;2022-07-23T09:02:46;29.00;99.90
7143;DHT22;3613;48.902;9.204;2022-07-23T09:05:15;29.50;99.90
7143;DHT22;3613;48.902;9.204;2022-07-23T09:08:12;30.40;99.90
7143;DHT22;3613;48.902;9.204;2022-07-23T09:10:50;31.20;99.90
7143;DHT22;3613;48.902;9.204;2022-07-23T09:16:00;32.00;99.90
7143;DHT22;3613;48.902;9.204;2022-07-23T09:18:41;31.40;99.30
7143;DHT22;3613;48.902;9.204;2022-07-23T09:26:25;30.60;99.30
7143;DHT22;3613;48.902;9.204;2022-07-23T09:29:05;30.00;99.90
7143;DHT22;3613;48.902;9.204;2022-07-23T09:34:20;31.00;99.70
7143;DHT22;3613;48.902;9.204;2022-07-23T09:36:47;31.60;99.30
7143;DHT22;3613;48.902;9.204;2022-07-23T09:39:15;31.90;98.70
7143;DHT22;3613;48.902;9.204;2022-07-23T09:41:44;31.60;97.90
7143;DHT22;3613;48.902;9.204;2022-07-23T09:44:15;31.50;97.70
7143;DHT22;3613;48.902;9.204;2022-07-23T09:46:45;31.50;97.90
7143;DHT22;3613;48.902;9.204;2022-07-23T09:56:57;32.00;96.60
7143;DHT22;3613;48.902;9.204;2022-07-23T09:59:26;32.10;95.90
7143;DHT22;3613;48.902;9.204;2022-07-23T10:01:54;32.00;96.00
7143;DHT22;3613;48.902;9.204;2022-07-23T10:04:23;32.20;95.60
7143;DHT22;3613;48.902;9.204;2022-07-23T10:06:52;32.30;96.40
7143;DHT22;3613;48.902;9.204;2022-07-23T10:09:22;31.80;97.10
7143;DHT22;3613;48.902;9.204;2022-07-23T10:11:49;32.00;97.10
7143;DHT22;3613;48.902;9.204;2022-07-23T10:14:16;32.10;96.50
7143;DHT22;3613;48.902;9.204;2022-07-23T10:16:42;32.10;96.60
7143;DHT22;3613;48.902;9.204;2022-07-23T10:19:08;31.80;96.90
7143;DHT22;3613;48.902;9.204;2022-07-23T10:21:45;31.40;98.00
7143;DHT22;3613;48.902;9.204;2022-07-23T10:29:46;31.60;97.10
7143;DHT22;3613;48.902;9.204;2022-07-23T10:35:26;31.50;95.40
7143;DHT22;3613;48.902;9.204;2022-07-23T10:38:10;31.80;95.00
7143;DHT22;3613;48.902;9.204;2022-07-23T10:40:55;31.90;95.00
7143;DHT22;3613;48.902;9.204;2022-07-23T10:43:21;32.50;94.00
7143;DHT22;3613;48.902;9.204;2022-07-23T10:45:48;32.50;93.60
7143;DHT22;3613;48.902;9.204;2022-07-23T10:51:05;32.20;93.00
7143;DHT22;3613;48.902;9.204;2022-07-23T10:59:23;32.60;90.40
7143;DHT22;3613;48.902;9.204;2022-07-23T11:01:50;32.50;90.80
7143;DHT22;3613;48.902;9.204;2022-07-23T11:04:15;32.70;91.20
7143;DHT22;3613;48.902;9.204;2022-07-23T11:09:41;31.70;91.10
7143;DHT22;3613;48.902;9.204;2022-07-23T11:15:06;32.10;91.40
7143;DHT22;3613;48.902;9.204;2022-07-23T11:17:37;32.80;90.80
7143;DHT22;3613;48.902;9.204;2022-07-23T11:27:47;32.70;87.70
7143;DHT22;3613;48.902;9.204;2022-07-23T11:33:15;33.20;86.00
7143;DHT22;3613;48.902;9.204;2022-07-23T11:35:45;33.20;86.00
7143;DHT22;3613;48.902;9.204;2022-07-23T11:38:20;33.10;84.70
7143;DHT22;3613;48.902;9.204;2022-07-23T11:40:53;33.30;85.90
7143;DHT22;3613;48.902;9.204;2022-07-23T11:43:23;33.50;82.60
7143;DHT22;3613;48.902;9.204;2022-07-23T11:45:58;33.60;83.80
7143;DHT22;3613;48.902;9.204;2022-07-23T11:48:29;34.60;82.90
7143;DHT22;3613;48.902;9.204;2022-07-23T11:50:56;34.50;81.80
7143;DHT22;3613;48.902;9.204;2022-07-23T11:53:28;34.20;82.10
7143;DHT22;3613;48.902;9.204;2022-07-23T11:55:53;34.10;83.10
7143;DHT22;3613;48.902;9.204;2022-07-23T11:58:23;34.50;82.70
7143;DHT22;3613;48.902;9.204;2022-07-23T12:00:48;34.80;82.30
7143;DHT22;3613;48.902;9.204;2022-07-23T12:03:16;35.00;82.40
7143;DHT22;3613;48.902;9.204;2022-07-23T12:05:44;35.40;80.40
7143;DHT22;3613;48.902;9.204;2022-07-23T12:08:12;34.70;81.10
7143;DHT22;3613;48.902;9.204;2022-07-23T12:10:44;33.90;82.80
7143;DHT22;3613;48.902;9.204;2022-07-23T12:13:13;34.00;84.00
7143;DHT22;3613;48.902;9.204;2022-07-23T12:15:42;34.90;82.50
7143;DHT22;3613;48.902;9.204;2022-07-23T12:18:11;35.30;82.30
7143;DHT22;3613;48.902;9.204;2022-07-23T12:20:46;35.50;81.00
7143;DHT22;3613;48.902;9.204;2022-07-23T12:23:14;35.60;81.70
7143;DHT22;3613;48.902;9.204;2022-07-23T12:25:42;35.90;79.50
7143;DHT22;3613;48.902;9.204;2022-07-23T12:28:17;35.60;79.30
7143;DHT22;3613;48.902;9.204;2022-07-23T12:30:49;36.10;78.60
7143;DHT22;3613;48.902;9.204;2022-07-23T12:33:22;36.00;78.00
7143;DHT22;3613;48.902;9.204;2022-07-23T12:35:53;35.50;79.30
7143;DHT22;3613;48.902;9.204;2022-07-23T12:38:21;35.80;78.00
7143;DHT22;3613;48.902;9.204;2022-07-23T12:46:02;34.90;79.10
7143;DHT22;3613;48.902;9.204;2022-07-23T12:48:35;34.70;78.40
7143;DHT22;3613;48.902;9.204;2022-07-23T12:53:42;33.40;82.60
7143;DHT22;3613;48.902;9.204;2022-07-23T12:56:12;34.00;80.30
7143;DHT22;3613;48.902;9.204;2022-07-23T12:58:54;34.60;80.10
7143;DHT22;3613;48.902;9.204;2022-07-23T13:06:44;33.60;80.20
7143;DHT22;3613;48.902;9.204;2022-07-23T13:09:13;34.20;80.30
7143;DHT22;3613;48.902;9.204;2022-07-23T13:11:39;34.70;78.60
7143;DHT22;3613;48.902;9.204;2022-07-23T13:14:08;35.00;78.30
7143;DHT22;3613;48.902;9.204;2022-07-23T13:16:36;34.10;78.20
7143;DHT22;3613;48.902;9.204;2022-07-23T13:19:02;33.80;79.40
7143;DHT22;3613;48.902;9.204;2022-07-23T13:21:30;34.40;79.00
7143;DHT22;3613;48.902;9.204;2022-07-23T13:23:58;34.40;79.50
7143;DHT22;3613;48.902;9.204;2022-07-23T13:26:25;34.20;79.60
7143;DHT22;3613;48.902;9.204;2022-07-23T13:28:51;34.30;79.60
7143;DHT22;3613;48.902;9.204;2022-07-23T13:31:19;34.00;78.50
7143;DHT22;3613;48.902;9.204;2022-07-23T13:33:48;33.80;78.50
7143;DHT22;3613;48.902;9.204;2022-07-23T13:36:13;33.40;77.90
7143;DHT22;3613;48.902;9.204;2022-07-23T13:38:39;32.50;79.00
7143;DHT22;3613;48.902;9.204;2022-07-23T13:41:05;31.70;81.90
7143;DHT22;3613;48.902;9.204;2022-07-23T13:43:31;31.40;82.70
7143;DHT22;3613;48.902;9.204;2022-07-23T13:45:57;31.40;83.20
7143;DHT22;3613;48.902;9.204;2022-07-23T13:48:23;31.70;83.40
7143;DHT22;3613;48.902;9.204;2022-07-23T13:50:50;31.70;81.20
7143;DHT22;3613;48.902;9.204;2022-07-23T13:53:20;31.60;81.70
7143;DHT22;3613;48.902;9.204;2022-07-23T13:55:48;31.80;82.00
7143;DHT22;3613;48.902;9.204;2022-07-23T13:58:17;31.90;80.70
7143;DHT22;3613;48.902;9.204;2022-07-23T14:00:45;31.50;80.30
7143;DHT22;3613;48.902;9.204;2022-07-23T14:03:11;31.30;80.40
7143;DHT22;3613;48.902;9.204;2022-07-23T14:05:37;31.20;80.70
7143;DHT22;3613;48.902;9.204;2022-07-23T14:08:03;30.80;82.10
7143;DHT22;3613;48.902;9.204;2022-07-23T14:10:31;30.80;82.00
7143;DHT22;3613;48.902;9.204;2022-07-23T14:12:57;31.00;81.70
7143;DHT22;3613;48.902;9.204;2022-07-23T14:15:27;31.00;81.30
7143;DHT22;3613;48.902;9.204;2022-07-23T14:17:54;30.80;81.70
7143;DHT22;3613;48.902;9.204;2022-07-23T14:20:20;31.00;82.30
7143;DHT22;3613;48.902;9.204;2022-07-23T14:22:49;31.20;81.90
7143;DHT22;3613;48.902;9.204;2022-07-23T14:25:15;31.10;82.20
7143;DHT22;3613;48.902;9.204;2022-07-23T14:27:44;31.20;83.10
7143;DHT22;3613;48.902;9.204;2022-07-23T14:30:13;31.20;83.00
7143;DHT22;3613;48.902;9.204;2022-07-23T14:32:40;31.40;81.60
7143;DHT22;3613;48.902;9.204;2022-07-23T14:35:06;31.10;80.70
7143;DHT22;3613;48.902;9.204;2022-07-23T14:37:32;31.10;81.60
7143;DHT22;3613;48.902;9.204;2022-07-23T14:39:58;31.10;81.10
7143;DHT22;3613;48.902;9.204;2022-07-23T14:42:23;30.90;80.90
7143;DHT22;3613;48.902;9.204;2022-07-23T14:44:49;30.90;82.00
7143;DHT22;3613;48.902;9.204;2022-07-23T14:47:17;31.00;82.20
7143;DHT22;3613;48.902;9.204;2022-07-23T14:49:43;32.80;83.50
7143;DHT22;3613;48.902;9.204;2022-07-23T14:52:11;31.00;82.90
7143;DHT22;3613;48.902;9.204;2022-07-23T14:54:36;30.80;82.90
7143;DHT22;3613;48.902;9.204;2022-07-23T14:57:04;30.70;83.20
7143;DHT22;3613;48.902;9.204;2022-07-23T14:59:32;30.70;84.00
7143;DHT22;3613;48.902;9.204;2022-07-23T15:02:00;30.80;84.30
7143;DHT22;3613;48.902;9.204;2022-07-23T15:04:26;30.80;84.90
7143;DHT22;3613;48.902;9.204;2022-07-23T15:06:52;30.60;84.60
7143;DHT22;3613;48.902;9.204;2022-07-23T15:09:18;30.50;85.10
7143;DHT22;3613;48.902;9.204;2022-07-23T15:11:43;30.30;84.60
7143;DHT22;3613;48.902;9.204;2022-07-23T15:14:09;30.50;85.10
7143;DHT22;3613;48.902;9.204;2022-07-23T15:16:35;30.80;84.40
7143;DHT22;3613;48.902;9.204;2022-07-23T15:19:04;30.80;83.90
7143;DHT22;3613;48.902;9.204;2022-07-23T15:21:30;30.80;84.40
7143;DHT22;3613;48.902;9.204;2022-07-23T15:23:56;30.60;85.00
7143;DHT22;3613;48.902;9.204;2022-07-23T15:26:29;30.60;86.20
7143;DHT22;3613;48.902;9.204;2022-07-23T15:28:55;30.50;86.00
7143;DHT22;3613;48.902;9.204;2022-07-23T15:31:22;30.70;85.80
7143;DHT22;3613;48.902;9.204;2022-07-23T15:33:48;30.70;85.40
7143;DHT22;3613;48.902;9.204;2022-07-23T15:36:14;30.40;85.90
7143;DHT22;3613;48.902;9.204;2022-07-23T15:38:42;30.30;86.40
7143;DHT22;3613;48.902;9.204;2022-07-23T15:41:09;30.20;86.10
7143;DHT22;3613;48.902;9.204;2022-07-23T15:43:35;30.30;86.90
7143;DHT22;3613;48.902;9.204;2022-07-23T15:46:01;30.30;86.80
7143;DHT22;3613;48.902;9.204;2022-07-23T15:48:26;30.40;87.00
7143;DHT22;3613;48.902;9.204;2022-07-23T15:50:52;30.30;87.70
7143;DHT22;3613;48.902;9.204;2022-07-23T15:53:18;30.20;87.50
7143;DHT22;3613;48.902;9.204;2022-07-23T15:55:47;30.20;87.80
7143;DHT22;3613;48.902;9.204;2022-07-23T15:58:13;30.30;87.70
7143;DHT22;3613;48.902;9.204;2022-07-23T16:00:39;30.20;88.60
7143;DHT22;3613;48.902;9.204;2022-07-23T16:03:05;30.10;89.50
7143;DHT22;3613;48.902;9.204;2022-07-23T16:05:33;30.20;89.30
7143;DHT22;3613;48.902;9.204;2022-07-23T16:08:02;30.30;89.10
7143;DHT22;3613;48.902;9.204;2022-07-23T16:10:31;30.30;88.90
7143;DHT22;3613;48.902;9.204;2022-07-23T16:12:57;30.10;89.20
7143;DHT22;3613;48.902;9.204;2022-07-23T16:15:23;29.80;90.00
7143;DHT22;3613;48.902;9.204;2022-07-23T16:17:49;29.60;90.60
7143;DHT22;3613;48.902;9.204;2022-07-23T16:20:17;29.20;90.70
7143;DHT22;3613;48.902;9.204;2022-07-23T16:22:42;28.80;91.20
7143;DHT22;3613;48.902;9.204;2022-07-23T16:25:08;28.60;92.00
7143;DHT22;3613;48.902;9.204;2022-07-23T16:27:36;28.60;92.40
7143;DHT22;3613;48.902;9.204;2022-07-23T16:30:05;28.50;92.40
7143;DHT22;3613;48.902;9.204;2022-07-23T16:32:32;28.60;92.50
7143;DHT22;3613;48.902;9.204;2022-07-23T16:35:00;28.90;92.50
7143;DHT22;3613;48.902;9.204;2022-07-23T16:37:26;29.00;92.50
7143;DHT22;3613;48.902;9.204;2022-07-23T16:39:51;28.90;92.10
7143;DHT22;3613;48.902;9.204;2022-07-23T16:42:19;28.70;92.60
7143;DHT22;3613;48.902;9.204;2022-07-23T16:44:45;28.70;92.60
7143;DHT22;3613;48.902;9.204;2022-07-23T16:47:13;28.60;92.70
7143;DHT22;3613;48.902;9.204;2022-07-23T16:49:41;28.50;92.80
7143;DHT22;3613;48.902;9.204;2022-07-23T16:52:11;28.40;93.30
7143;DHT22;3613;48.902;9.204;2022-07-23T16:54:37;28.30;93.40
7143;DHT22;3613;48.902;9.204;2022-07-23T16:57:05;28.10;94.10
7143;DHT22;3613;48.902;9.204;2022-07-23T16:59:30;28.00;93.90
7143;DHT22;3613;48.902;9.204;2022-07-23T17:01:56;27.80;94.50
7143;DHT22;3613;48.902;9.204;2022-07-23T17:04:26;27.80;94.80
7143;DHT22;3613;48.902;9.204;2022-07-23T17:06:52;27.70;95.10
7143;DHT22;3613;48.902;9.204;2022-07-23T17:09:18;27.50;95.40
7143;DHT22;3613;48.902;9.204;2022-07-23T17:11:44;27.60;95.70